Yellow Mule RAWS (NWS)

Elevation
9200ft
Aggregated by Synoptic Data
Date/Time Wind Direction Wind Speed knots Wind Gust knots RH % Accumulated Precip Inches Air Temp Fahrenheit
2024-07-25 13:04 17 30 43 7.77 67
2024-07-25 12:04 12 24 49 7.77 65
2024-07-25 11:04 13 21 57 7.77 61
2024-07-25 10:04 11 17 58 7.77 63
2024-07-25 09:04 8 15 64 7.77 58
2024-07-25 08:04 12 29 57 7.77 58
2024-07-25 07:04 17 24 56 7.77 57
2024-07-25 06:04 8 11 69 7.76 54
2024-07-25 05:04 10 21 68 7.76 54
2024-07-25 04:04 10 28 62 7.76 57
2024-07-25 03:04 9 17 62 7.75 56
2024-07-25 02:04 3 9 63 7.74 55
2024-07-25 01:04 8 22 58 7.74 57
2024-07-25 00:04 9 30 42 7.74 63
2024-07-24 23:04 11 16 36 7.74 64
2024-07-24 22:04 11 21 32 7.74 65
2024-07-24 21:04 9 18 33 7.74 65
2024-07-24 20:04 10 16 34 7.74 66
2024-07-24 19:04 12 23 30 7.74 69
2024-07-24 18:04 11 15 35 7.74 70
2024-07-24 17:04 4 10 37 7.74 67
2024-07-24 16:04 10 36 42 7.74 63
2024-07-24 15:04 11 17 32 7.74 70
2024-07-24 14:04 9 17 27 7.74 72
2024-07-24 13:04 6 15 30 7.74 72
2024-07-24 12:04 6 10 31 7.74 74
2024-07-24 11:04 4 7 35 7.74 73
2024-07-24 10:04 3 7 35 7.74 73
2024-07-24 09:04 4 7 39 7.74 67
2024-07-24 08:04 5 10 38 7.74 64
2024-07-24 07:04 8 11 36 7.74 62
2024-07-24 06:04 8 12 36 7.74 61
2024-07-24 05:04 9 11 37 7.74 61
2024-07-24 04:04 5 14 36 7.74 60
2024-07-24 03:04 9 13 32 7.74 63
2024-07-24 02:04 6 9 30 7.74 62
2024-07-24 01:04 7 10 28 7.74 64
2024-07-24 00:04 4 5 27 7.74 63
2024-07-23 23:04 4 5 24 7.74 65
2024-07-23 22:04 4 7 27 7.74 64
2024-07-23 21:04 3 10 27 7.74 65
2024-07-23 20:04 4 9 26 7.74 68
2024-07-23 19:04 6 12 22 7.74 73
2024-07-23 18:04 7 15 21 7.74 74
2024-07-23 17:04 8 14 21 7.74 74
2024-07-23 16:04 7 18 20 7.74 74
2024-07-23 15:04 4 10 35 7.74 71
2024-07-23 14:04 4 13 32 7.74 69
2024-07-23 13:04 3 15 32 7.74 71